﻿<?xml version="1.0" encoding="utf-8"?><gpx creator="Garmin Desktop App" version="1.1" xsi:schemaLocation="http://www.topografix.com/GPX/1/1 http://www.topografix.com/GPX/1/1/gpx.xsd http://www.garmin.com/xmlschemas/WaypointExtension/v1 http://www8.garmin.com/xmlschemas/WaypointExtensionv1.xsd http://www.garmin.com/xmlschemas/TrackPointExtension/v1 http://www.garmin.com/xmlschemas/TrackPointExtensionv1.xsd http://www.garmin.com/xmlschemas/GpxExtensions/v3 http://www8.garmin.com/xmlschemas/GpxExtensionsv3.xsd http://www.garmin.com/xmlschemas/ActivityExtension/v1 http://www8.garmin.com/xmlschemas/ActivityExtensionv1.xsd http://www.garmin.com/xmlschemas/AdventuresExtensions/v1 http://www8.garmin.com/xmlschemas/AdventuresExtensionv1.xsd http://www.garmin.com/xmlschemas/PressureExtension/v1 http://www.garmin.com/xmlschemas/PressureExtensionv1.xsd http://www.garmin.com/xmlschemas/TripExtensions/v1 http://www.garmin.com/xmlschemas/TripExtensionsv1.xsd http://www.garmin.com/xmlschemas/TripMetaDataExtensions/v1 http://www.garmin.com/xmlschemas/TripMetaDataExtensionsv1.xsd http://www.garmin.com/xmlschemas/ViaPointTransportationModeExtensions/v1 http://www.garmin.com/xmlschemas/ViaPointTransportationModeExtensionsv1.xsd http://www.garmin.com/xmlschemas/CreationTimeExtension/v1 http://www.garmin.com/xmlschemas/CreationTimeExtensionsv1.xsd http://www.garmin.com/xmlschemas/AccelerationExtension/v1 http://www.garmin.com/xmlschemas/AccelerationExtensionv1.xsd http://www.garmin.com/xmlschemas/PowerExtension/v1 http://www.garmin.com/xmlschemas/PowerExtensionv1.xsd http://www.garmin.com/xmlschemas/VideoExtension/v1 http://www.garmin.com/xmlschemas/VideoExtensionv1.xsd" xmlns="http://www.topografix.com/GPX/1/1" xmlns:xsi="http://www.w3.org/2001/XMLSchema-instance" xmlns:wptx1="http://www.garmin.com/xmlschemas/WaypointExtension/v1" xmlns:gpxtrx="http://www.garmin.com/xmlschemas/GpxExtensions/v3" xmlns:gpxtpx="http://www.garmin.com/xmlschemas/TrackPointExtension/v1" xmlns:gpxx="http://www.garmin.com/xmlschemas/GpxExtensions/v3" xmlns:trp="http://www.garmin.com/xmlschemas/TripExtensions/v1" xmlns:adv="http://www.garmin.com/xmlschemas/AdventuresExtensions/v1" xmlns:prs="http://www.garmin.com/xmlschemas/PressureExtension/v1" xmlns:tmd="http://www.garmin.com/xmlschemas/TripMetaDataExtensions/v1" xmlns:vptm="http://www.garmin.com/xmlschemas/ViaPointTransportationModeExtensions/v1" xmlns:ctx="http://www.garmin.com/xmlschemas/CreationTimeExtension/v1" xmlns:gpxacc="http://www.garmin.com/xmlschemas/AccelerationExtension/v1" xmlns:gpxpx="http://www.garmin.com/xmlschemas/PowerExtension/v1" xmlns:vidx1="http://www.garmin.com/xmlschemas/VideoExtension/v1">

  <metadata>
    <link href="http://www.garmin.com">
      <text>Garmin International</text>
    </link>
    <time>2026-05-03T12:54:23Z</time>
    <bounds maxlat="51.199501929804683" maxlon="5.827942304313183" minlat="51.175649715587497" minlon="5.783513272181153" />
  </metadata>

  <trk>
    <name>20260503 Hunsel</name>
    <extensions>
      <gpxx:TrackExtension>
        <gpxx:DisplayColor>Cyan</gpxx:DisplayColor>
      </gpxx:TrackExtension>
    </extensions>
    <trkseg>
      <trkpt lat="51.188491797074676" lon="5.812397059053183">
        <ele>144.61000000000001</ele>
        <time>2026-05-03T07:00:16Z</time>
      </trkpt>
      <trkpt lat="51.188521217554808" lon="5.812217686325312">
        <ele>144.72</ele>
        <time>2026-05-03T07:01:59Z</time>
      </trkpt>
      <trkpt lat="51.188494311645627" lon="5.812204442918301">
        <ele>144.72</ele>
        <time>2026-05-03T07:02:00Z</time>
      </trkpt>
      <trkpt lat="51.188324494287372" lon="5.812072260305286">
        <ele>143.75999999999999</ele>
        <time>2026-05-03T07:02:22Z</time>
      </trkpt>
      <trkpt lat="51.188232880085707" lon="5.812010485678911">
        <ele>143.75999999999999</ele>
        <time>2026-05-03T07:02:30Z</time>
      </trkpt>
      <trkpt lat="51.188255427405238" lon="5.81189313903451">
        <ele>143.75999999999999</ele>
        <time>2026-05-03T07:02:32Z</time>
      </trkpt>
      <trkpt lat="51.188681228086352" lon="5.810569133609533">
        <ele>144.08000000000001</ele>
        <time>2026-05-03T07:03:40Z</time>
      </trkpt>
      <trkpt lat="51.188624063506722" lon="5.810528146103025">
        <ele>143.69</ele>
        <time>2026-05-03T07:03:56Z</time>
      </trkpt>
      <trkpt lat="51.18857067078352" lon="5.810507610440254">
        <ele>143.16</ele>
        <time>2026-05-03T07:04:01Z</time>
      </trkpt>
      <trkpt lat="51.188341677188873" lon="5.810454552993178">
        <ele>142.61000000000001</ele>
        <time>2026-05-03T07:04:17Z</time>
      </trkpt>
      <trkpt lat="51.188266240060329" lon="5.810194546356797">
        <ele>142.66999999999999</ele>
        <time>2026-05-03T07:04:34Z</time>
      </trkpt>
      <trkpt lat="51.18814067915082" lon="5.809957254678011">
        <ele>142.49000000000001</ele>
        <time>2026-05-03T07:04:50Z</time>
      </trkpt>
      <trkpt lat="51.187833985313773" lon="5.810147523880005">
        <ele>142.22999999999999</ele>
        <time>2026-05-03T07:05:13Z</time>
      </trkpt>
      <trkpt lat="51.187710016965866" lon="5.810077032074332">
        <ele>142.31999999999999</ele>
        <time>2026-05-03T07:05:33Z</time>
      </trkpt>
      <trkpt lat="51.187599459663033" lon="5.809764051809907">
        <ele>142.38</ele>
        <time>2026-05-03T07:05:52Z</time>
      </trkpt>
      <trkpt lat="51.187410615384579" lon="5.809602532535791">
        <ele>142.5</ele>
        <time>2026-05-03T07:06:12Z</time>
      </trkpt>
      <trkpt lat="51.187262423336506" lon="5.809664223343134">
        <ele>142.41999999999999</ele>
        <time>2026-05-03T07:06:33Z</time>
      </trkpt>
      <trkpt lat="51.187076428905129" lon="5.809941915795207">
        <ele>143.11000000000001</ele>
        <time>2026-05-03T07:07:09Z</time>
      </trkpt>
      <trkpt lat="51.186779960989952" lon="5.810153475031257">
        <ele>143.06</ele>
        <time>2026-05-03T07:07:27Z</time>
      </trkpt>
      <trkpt lat="51.18647544644773" lon="5.810060938820243">
        <ele>142.99000000000001</ele>
        <time>2026-05-03T07:07:53Z</time>
      </trkpt>
      <trkpt lat="51.186181493103504" lon="5.80977444536984">
        <ele>143.16</ele>
        <time>2026-05-03T07:08:16Z</time>
      </trkpt>
      <trkpt lat="51.185992900282145" lon="5.809637820348144">
        <ele>143.28999999999999</ele>
        <time>2026-05-03T07:08:34Z</time>
      </trkpt>
      <trkpt lat="51.185752004384995" lon="5.809686267748475">
        <ele>142.66</ele>
        <time>2026-05-03T07:08:51Z</time>
      </trkpt>
      <trkpt lat="51.185555281117558" lon="5.809796489775181">
        <ele>142.38999999999999</ele>
        <time>2026-05-03T07:09:28Z</time>
      </trkpt>
      <trkpt lat="51.185288485139608" lon="5.809712754562497">
        <ele>142.40000000000001</ele>
        <time>2026-05-03T07:09:51Z</time>
      </trkpt>
      <trkpt lat="51.185061922296882" lon="5.809452747926116">
        <ele>142.47</ele>
        <time>2026-05-03T07:10:16Z</time>
      </trkpt>
      <trkpt lat="51.184870563447475" lon="5.808981182053685">
        <ele>142.46000000000001</ele>
        <time>2026-05-03T07:10:37Z</time>
      </trkpt>
      <trkpt lat="51.184751959517598" lon="5.808438956737518">
        <ele>142.78999999999999</ele>
        <time>2026-05-03T07:10:59Z</time>
      </trkpt>
      <trkpt lat="51.184730418026447" lon="5.808275928720832">
        <ele>142.97999999999999</ele>
        <time>2026-05-03T07:11:41Z</time>
      </trkpt>
      <trkpt lat="51.184645676985383" lon="5.807241601869464">
        <ele>142.59</ele>
        <time>2026-05-03T07:12:04Z</time>
      </trkpt>
      <trkpt lat="51.184625308960676" lon="5.807108078151941">
        <ele>142.56999999999999</ele>
        <time>2026-05-03T07:12:25Z</time>
      </trkpt>
      <trkpt lat="51.184698985889554" lon="5.806592423468828">
        <ele>29</ele>
      </trkpt>
      <trkpt lat="51.184682808816433" lon="5.806257482618094">
        <ele>142.47</ele>
        <time>2026-05-03T07:12:45Z</time>
      </trkpt>
      <trkpt lat="51.184750199317932" lon="5.805966546759009">
        <ele>142.61000000000001</ele>
        <time>2026-05-03T07:13:10Z</time>
      </trkpt>
      <trkpt lat="51.184833683073521" lon="5.805499339476228">
        <ele>28.1875</ele>
      </trkpt>
      <trkpt lat="51.184790516272187" lon="5.805080831050873">
        <ele>142.97999999999999</ele>
        <time>2026-05-03T07:13:55Z</time>
      </trkpt>
      <trkpt lat="51.184705356135964" lon="5.804678918793798">
        <ele>143.08000000000001</ele>
        <time>2026-05-03T07:14:18Z</time>
      </trkpt>
      <trkpt lat="51.184495138004422" lon="5.803795717656612">
        <ele>143.08000000000001</ele>
        <time>2026-05-03T07:15:07Z</time>
      </trkpt>
      <trkpt lat="51.184291960671544" lon="5.802897680550814">
        <ele>143.66</ele>
        <time>2026-05-03T07:15:55Z</time>
      </trkpt>
      <trkpt lat="51.184116695076227" lon="5.802346738055348">
        <ele>143.74000000000001</ele>
        <time>2026-05-03T07:16:25Z</time>
      </trkpt>
      <trkpt lat="51.183774461969733" lon="5.801804596558213">
        <ele>143.87</ele>
        <time>2026-05-03T07:17:12Z</time>
      </trkpt>
      <trkpt lat="51.183685529977083" lon="5.801734104752541">
        <ele>28.78125</ele>
      </trkpt>
      <trkpt lat="51.183584611862898" lon="5.801759250462055">
        <ele>143.88</ele>
        <time>2026-05-03T07:17:25Z</time>
      </trkpt>
      <trkpt lat="51.183519987389445" lon="5.801781294867396">
        <ele>143.97999999999999</ele>
        <time>2026-05-03T07:17:52Z</time>
      </trkpt>
      <trkpt lat="51.183420242741704" lon="5.801737206056714">
        <ele>143.81999999999999</ele>
        <time>2026-05-03T07:18:13Z</time>
      </trkpt>
      <trkpt lat="51.183385206386447" lon="5.80162706784904">
        <ele>143.69999999999999</ele>
        <time>2026-05-03T07:18:24Z</time>
      </trkpt>
      <trkpt lat="51.183325946331024" lon="5.801389021798968">
        <ele>143.58000000000001</ele>
        <time>2026-05-03T07:18:43Z</time>
      </trkpt>
      <trkpt lat="51.183075243607163" lon="5.801265556365252">
        <ele>143.58000000000001</ele>
        <time>2026-05-03T07:19:04Z</time>
      </trkpt>
      <trkpt lat="51.182851614430547" lon="5.801283242180944">
        <ele>143.58000000000001</ele>
        <time>2026-05-03T07:19:20Z</time>
      </trkpt>
      <trkpt lat="51.182708786800504" lon="5.801089284941554">
        <ele>143.21000000000001</ele>
        <time>2026-05-03T07:19:36Z</time>
      </trkpt>
      <trkpt lat="51.18263578042388" lon="5.800963137298822">
        <ele>143.25999999999999</ele>
        <time>2026-05-03T07:19:37Z</time>
      </trkpt>
      <trkpt lat="51.182538717985153" lon="5.800782423466444">
        <ele>143.52000000000001</ele>
        <time>2026-05-03T07:19:54Z</time>
      </trkpt>
      <trkpt lat="51.182352807372808" lon="5.800451841205359">
        <ele>143.31</ele>
        <time>2026-05-03T07:20:16Z</time>
      </trkpt>
      <trkpt lat="51.182016776874661" lon="5.799758490175009">
        <ele>143.78</ele>
        <time>2026-05-03T07:20:52Z</time>
      </trkpt>
      <trkpt lat="51.181801194325089" lon="5.799516001716256">
        <ele>28</ele>
      </trkpt>
      <trkpt lat="51.181642189621925" lon="5.799233950674534">
        <ele>143.38999999999999</ele>
        <time>2026-05-03T07:21:14Z</time>
      </trkpt>
      <trkpt lat="51.181623330339789" lon="5.79915021546185">
        <ele>143.59999999999999</ele>
        <time>2026-05-03T07:22:03Z</time>
      </trkpt>
      <trkpt lat="51.181674459949136" lon="5.798727096989751">
        <ele>143.78999999999999</ele>
        <time>2026-05-03T07:22:25Z</time>
      </trkpt>
      <trkpt lat="51.181626012548804" lon="5.798586029559374">
        <ele>143.72999999999999</ele>
        <time>2026-05-03T07:22:48Z</time>
      </trkpt>
      <trkpt lat="51.181252179667354" lon="5.798208592459559">
        <ele>143.75</ele>
        <time>2026-05-03T07:23:02Z</time>
      </trkpt>
      <trkpt lat="51.181071549654007" lon="5.798028046265245">
        <ele>143.93000000000001</ele>
        <time>2026-05-03T07:23:16Z</time>
      </trkpt>
      <trkpt lat="51.180998794734478" lon="5.797926625236869">
        <ele>144.11000000000001</ele>
        <time>2026-05-03T07:23:25Z</time>
      </trkpt>
      <trkpt lat="51.180950263515115" lon="5.797693021595478">
        <ele>143.77000000000001</ele>
        <time>2026-05-03T07:23:41Z</time>
      </trkpt>
      <trkpt lat="51.181015893816948" lon="5.797399319708347">
        <ele>144.38</ele>
        <time>2026-05-03T07:24:03Z</time>
      </trkpt>
      <trkpt lat="51.181101221591234" lon="5.797155322507024">
        <ele>144.72</ele>
        <time>2026-05-03T07:24:22Z</time>
      </trkpt>
      <trkpt lat="51.181040201336145" lon="5.796773945912719">
        <ele>145.06999999999999</ele>
        <time>2026-05-03T07:24:40Z</time>
      </trkpt>
      <trkpt lat="51.180996866896749" lon="5.796585436910391">
        <ele>145.63</ele>
        <time>2026-05-03T07:25:01Z</time>
      </trkpt>
      <trkpt lat="51.180929560214281" lon="5.796466413885355">
        <ele>145.68000000000001</ele>
        <time>2026-05-03T07:25:27Z</time>
      </trkpt>
      <trkpt lat="51.180810956284404" lon="5.796250496059656">
        <ele>145.56</ele>
        <time>2026-05-03T07:25:52Z</time>
      </trkpt>
      <trkpt lat="51.180677684023976" lon="5.795942209661007">
        <ele>145.56</ele>
        <time>2026-05-03T07:26:13Z</time>
      </trkpt>
      <trkpt lat="51.180619597434998" lon="5.795792089775205">
        <ele>145.56</ele>
        <time>2026-05-03T07:26:27Z</time>
      </trkpt>
      <trkpt lat="51.180491941049695" lon="5.795740708708763">
        <ele>145.56</ele>
        <time>2026-05-03T07:26:47Z</time>
      </trkpt>
      <trkpt lat="51.180128837004304" lon="5.79573811031878">
        <ele>27.57421875</ele>
      </trkpt>
      <trkpt lat="51.180026493966579" lon="5.795658733695746">
        <ele>145.56</ele>
        <time>2026-05-03T07:27:09Z</time>
      </trkpt>
      <trkpt lat="51.179950973019004" lon="5.795354638248682">
        <ele>145.56</ele>
        <time>2026-05-03T07:27:32Z</time>
      </trkpt>
      <trkpt lat="51.179929431527853" lon="5.794997569173574">
        <ele>145.56</ele>
        <time>2026-05-03T07:27:55Z</time>
      </trkpt>
      <trkpt lat="51.179980644956231" lon="5.794666986912489">
        <ele>27.890625</ele>
      </trkpt>
      <trkpt lat="51.179862041026354" lon="5.794076398015022">
        <ele>28.16015625</ele>
      </trkpt>
      <trkpt lat="51.179829686880112" lon="5.793961817398667">
        <ele>145.56</ele>
        <time>2026-05-03T07:28:41Z</time>
      </trkpt>
      <trkpt lat="51.179710328578949" lon="5.793957961723208">
        <ele>145.56</ele>
        <time>2026-05-03T07:29:03Z</time>
      </trkpt>
      <trkpt lat="51.179505307227373" lon="5.794028034433723">
        <ele>145.56</ele>
        <time>2026-05-03T07:29:27Z</time>
      </trkpt>
      <trkpt lat="51.179268099367619" lon="5.793970786035061">
        <ele>145.56</ele>
        <time>2026-05-03T07:29:47Z</time>
      </trkpt>
      <trkpt lat="51.17912795394659" lon="5.793856121599674">
        <ele>145.56</ele>
        <time>2026-05-03T07:30:05Z</time>
      </trkpt>
      <trkpt lat="51.178815392777324" lon="5.793393356725574">
        <ele>145.56</ele>
        <time>2026-05-03T07:30:29Z</time>
      </trkpt>
      <trkpt lat="51.178582543507218" lon="5.793182719498873">
        <ele>144.19</ele>
        <time>2026-05-03T07:30:47Z</time>
      </trkpt>
      <trkpt lat="51.178414989262819" lon="5.793010303750634">
        <ele>144.22999999999999</ele>
        <time>2026-05-03T07:31:03Z</time>
      </trkpt>
      <trkpt lat="51.178060518577695" lon="5.792680978775024">
        <ele>143.87</ele>
        <time>2026-05-03T07:31:37Z</time>
      </trkpt>
      <trkpt lat="51.177722308784723" lon="5.792310750111938">
        <ele>143.90000000000001</ele>
        <time>2026-05-03T07:32:09Z</time>
      </trkpt>
      <trkpt lat="51.177316876128316" lon="5.791923422366381">
        <ele>144.11000000000001</ele>
        <time>2026-05-03T07:32:45Z</time>
      </trkpt>
      <trkpt lat="51.176821338012815" lon="5.79144548624754">
        <ele>27.01953125</ele>
      </trkpt>
      <trkpt lat="51.1767512653023" lon="5.791392596438527">
        <ele>144.19</ele>
        <time>2026-05-03T07:33:39Z</time>
      </trkpt>
      <trkpt lat="51.176611119881272" lon="5.791317662224174">
        <ele>27.06640625</ele>
      </trkpt>
      <trkpt lat="51.176405930891633" lon="5.791046423837543">
        <ele>144.13999999999999</ele>
        <time>2026-05-03T07:34:11Z</time>
      </trkpt>
      <trkpt lat="51.176158329471946" lon="5.790603691712022">
        <ele>144.36000000000001</ele>
        <time>2026-05-03T07:34:45Z</time>
      </trkpt>
      <trkpt lat="51.176087921485305" lon="5.790189122781158">
        <ele>144.47999999999999</ele>
        <time>2026-05-03T07:35:01Z</time>
      </trkpt>
      <trkpt lat="51.176009215414524" lon="5.789632480591536">
        <ele>144.66</ele>
        <time>2026-05-03T07:35:32Z</time>
      </trkpt>
      <trkpt lat="51.175941824913025" lon="5.789209362119436">
        <ele>144.83000000000001</ele>
        <time>2026-05-03T07:35:54Z</time>
      </trkpt>
      <trkpt lat="51.175794051960111" lon="5.78853134997189">
        <ele>144.72</ele>
        <time>2026-05-03T07:36:30Z</time>
      </trkpt>
      <trkpt lat="51.175804445520043" lon="5.78843797557056">
        <ele>144.43000000000001</ele>
        <time>2026-05-03T07:36:49Z</time>
      </trkpt>
      <trkpt lat="51.175652565434575" lon="5.788031034171581">
        <ele>144.65000000000001</ele>
        <time>2026-05-03T07:37:01Z</time>
      </trkpt>
      <trkpt lat="51.176054058596492" lon="5.787436002865434">
        <ele>145.69</ele>
        <time>2026-05-03T07:37:43Z</time>
      </trkpt>
      <trkpt lat="51.176207363605499" lon="5.787695422768593">
        <ele>145.77000000000001</ele>
        <time>2026-05-03T07:38:01Z</time>
      </trkpt>
      <trkpt lat="51.17658169940114" lon="5.788264973089099">
        <ele>145.80000000000001</ele>
        <time>2026-05-03T07:38:39Z</time>
      </trkpt>
      <trkpt lat="51.176927117630839" lon="5.788808204233646">
        <ele>146.09</ele>
        <time>2026-05-03T07:39:17Z</time>
      </trkpt>
      <trkpt lat="51.177267339080572" lon="5.78933022916317">
        <ele>145.81</ele>
        <time>2026-05-03T07:39:52Z</time>
      </trkpt>
      <trkpt lat="51.177658941596746" lon="5.789961302652955">
        <ele>145.71000000000001</ele>
        <time>2026-05-03T07:40:34Z</time>
      </trkpt>
      <trkpt lat="51.178181720897555" lon="5.790776694193482">
        <ele>145.61000000000001</ele>
        <time>2026-05-03T07:41:33Z</time>
      </trkpt>
      <trkpt lat="51.178411804139614" lon="5.790998479351401">
        <ele>145.50999999999999</ele>
        <time>2026-05-03T07:41:53Z</time>
      </trkpt>
      <trkpt lat="51.178841628134251" lon="5.791422184556723">
        <ele>145.78999999999999</ele>
        <time>2026-05-03T07:42:33Z</time>
      </trkpt>
      <trkpt lat="51.179592479020357" lon="5.792117798700929">
        <ele>146.13999999999999</ele>
        <time>2026-05-03T07:43:12Z</time>
      </trkpt>
      <trkpt lat="51.180034456774592" lon="5.792399933561683">
        <ele>146.41999999999999</ele>
        <time>2026-05-03T07:44:12Z</time>
      </trkpt>
      <trkpt lat="51.180343832820654" lon="5.792549718171358">
        <ele>146.38999999999999</ele>
        <time>2026-05-03T07:44:35Z</time>
      </trkpt>
      <trkpt lat="51.180819673463702" lon="5.792578384280205">
        <ele>146.28</ele>
        <time>2026-05-03T07:45:15Z</time>
      </trkpt>
      <trkpt lat="51.181093007326126" lon="5.792527673766017">
        <ele>145.94999999999999</ele>
        <time>2026-05-03T07:45:38Z</time>
      </trkpt>
      <trkpt lat="51.181617211550474" lon="5.792371351271868">
        <ele>145.40000000000001</ele>
        <time>2026-05-03T07:46:19Z</time>
      </trkpt>
      <trkpt lat="51.182112833485007" lon="5.792235312983394">
        <ele>144.87</ele>
        <time>2026-05-03T07:46:55Z</time>
      </trkpt>
      <trkpt lat="51.182293463498354" lon="5.792186865583062">
        <ele>144.78999999999999</ele>
        <time>2026-05-03T07:47:13Z</time>
      </trkpt>
      <trkpt lat="51.182236801832914" lon="5.791750503703952">
        <ele>144.56</ele>
        <time>2026-05-03T07:47:30Z</time>
      </trkpt>
      <trkpt lat="51.182181062176824" lon="5.791368624195457">
        <ele>144.65000000000001</ele>
        <time>2026-05-03T07:47:48Z</time>
      </trkpt>
      <trkpt lat="51.182057093828917" lon="5.790354833006859">
        <ele>145.22</ele>
        <time>2026-05-03T07:48:38Z</time>
      </trkpt>
      <trkpt lat="51.182074025273323" lon="5.789935570210218">
        <ele>145.05000000000001</ele>
        <time>2026-05-03T07:48:57Z</time>
      </trkpt>
      <trkpt lat="51.182176368311048" lon="5.789547571912408">
        <ele>144.97999999999999</ele>
        <time>2026-05-03T07:49:16Z</time>
      </trkpt>
      <trkpt lat="51.182367810979486" lon="5.788859250023961">
        <ele>145.18000000000001</ele>
        <time>2026-05-03T07:49:54Z</time>
      </trkpt>
      <trkpt lat="51.182631086558104" lon="5.78805542550981">
        <ele>144.99000000000001</ele>
        <time>2026-05-03T07:50:37Z</time>
      </trkpt>
      <trkpt lat="51.182824457064271" lon="5.787434326484799">
        <ele>144.72999999999999</ele>
        <time>2026-05-03T07:51:15Z</time>
      </trkpt>
      <trkpt lat="51.182590937241912" lon="5.786931747570634">
        <ele>144.69999999999999</ele>
        <time>2026-05-03T07:51:40Z</time>
      </trkpt>
      <trkpt lat="51.182578112930059" lon="5.786808617413044">
        <ele>144.66999999999999</ele>
        <time>2026-05-03T07:51:49Z</time>
      </trkpt>
      <trkpt lat="51.182729154825211" lon="5.786617426201701">
        <ele>145.37</ele>
        <time>2026-05-03T07:52:08Z</time>
      </trkpt>
      <trkpt lat="51.182883717119694" lon="5.786522710695863">
        <ele>145.77000000000001</ele>
        <time>2026-05-03T07:52:23Z</time>
      </trkpt>
      <trkpt lat="51.18306040763855" lon="5.786619940772653">
        <ele>146.21000000000001</ele>
        <time>2026-05-03T07:52:43Z</time>
      </trkpt>
      <trkpt lat="51.183069040998816" lon="5.786621449515224">
        <ele>146.21000000000001</ele>
        <time>2026-05-03T07:53:10Z</time>
      </trkpt>
      <trkpt lat="51.183099467307329" lon="5.786642488092184">
        <ele>146.21000000000001</ele>
        <time>2026-05-03T07:53:28Z</time>
      </trkpt>
      <trkpt lat="51.183279762044549" lon="5.786265973001719">
        <ele>146.27000000000001</ele>
        <time>2026-05-03T07:53:52Z</time>
      </trkpt>
      <trkpt lat="51.183933299034834" lon="5.784729653969407">
        <ele>146.13</ele>
        <time>2026-05-03T07:54:39Z</time>
      </trkpt>
      <trkpt lat="51.184081491082907" lon="5.784575175493956">
        <ele>145.68000000000001</ele>
        <time>2026-05-03T07:55:42Z</time>
      </trkpt>
      <trkpt lat="51.18427611887455" lon="5.784432431682944">
        <ele>145.52000000000001</ele>
        <time>2026-05-03T07:56:00Z</time>
      </trkpt>
      <trkpt lat="51.184776350855827" lon="5.784060442820191">
        <ele>145.09</ele>
        <time>2026-05-03T07:56:44Z</time>
      </trkpt>
      <trkpt lat="51.185294352471828" lon="5.783513272181153">
        <ele>144.77000000000001</ele>
        <time>2026-05-03T07:57:20Z</time>
      </trkpt>
      <trkpt lat="51.185385966673493" lon="5.783641096204519">
        <ele>144.99000000000001</ele>
        <time>2026-05-03T07:57:39Z</time>
      </trkpt>
      <trkpt lat="51.185545977205038" lon="5.783812254667282">
        <ele>144.88999999999999</ele>
        <time>2026-05-03T07:58:00Z</time>
      </trkpt>
      <trkpt lat="51.185756111517549" lon="5.78408332541585">
        <ele>144.91999999999999</ele>
        <time>2026-05-03T07:58:21Z</time>
      </trkpt>
      <trkpt lat="51.186106475070119" lon="5.784506443887949">
        <ele>144.71000000000001</ele>
        <time>2026-05-03T07:59:02Z</time>
      </trkpt>
      <trkpt lat="51.186408558860421" lon="5.785183701664209">
        <ele>144.68000000000001</ele>
        <time>2026-05-03T07:59:37Z</time>
      </trkpt>
      <trkpt lat="51.186746852472425" lon="5.785724334418774">
        <ele>144.65000000000001</ele>
        <time>2026-05-03T08:00:11Z</time>
      </trkpt>
      <trkpt lat="51.187090510502458" lon="5.78625918366015">
        <ele>144.22999999999999</ele>
        <time>2026-05-03T08:00:46Z</time>
      </trkpt>
      <trkpt lat="51.187271056696773" lon="5.786594124510884">
        <ele>143.86000000000001</ele>
        <time>2026-05-03T08:01:04Z</time>
      </trkpt>
      <trkpt lat="51.187190171331167" lon="5.786770395934582">
        <ele>143.84</ele>
        <time>2026-05-03T08:01:26Z</time>
      </trkpt>
      <trkpt lat="51.187109369784594" lon="5.787197956815362">
        <ele>143.88999999999999</ele>
        <time>2026-05-03T08:01:41Z</time>
      </trkpt>
      <trkpt lat="51.187302069738507" lon="5.787493921816349">
        <ele>144.97</ele>
        <time>2026-05-03T08:02:02Z</time>
      </trkpt>
      <trkpt lat="51.187631478533149" lon="5.788010749965906">
        <ele>144.97999999999999</ele>
        <time>2026-05-03T08:02:38Z</time>
      </trkpt>
      <trkpt lat="51.188147636130452" lon="5.78884257003665">
        <ele>144.97</ele>
        <time>2026-05-03T08:03:37Z</time>
      </trkpt>
      <trkpt lat="51.188498418778181" lon="5.789488144218922">
        <ele>145</ele>
        <time>2026-05-03T08:04:17Z</time>
      </trkpt>
      <trkpt lat="51.18871727026999" lon="5.790066160261631">
        <ele>145.15000000000001</ele>
        <time>2026-05-03T08:04:54Z</time>
      </trkpt>
      <trkpt lat="51.188953975215554" lon="5.790707962587476">
        <ele>145.41999999999999</ele>
        <time>2026-05-03T08:05:34Z</time>
      </trkpt>
      <trkpt lat="51.189099485054612" lon="5.791054889559746">
        <ele>145.25</ele>
        <time>2026-05-03T08:05:53Z</time>
      </trkpt>
      <trkpt lat="51.189259495586157" lon="5.791559815406799">
        <ele>145.31</ele>
        <time>2026-05-03T08:06:12Z</time>
      </trkpt>
      <trkpt lat="51.189399641007185" lon="5.792154846712947">
        <ele>145.28999999999999</ele>
        <time>2026-05-03T08:06:33Z</time>
      </trkpt>
      <trkpt lat="51.189476083964109" lon="5.792104806751013">
        <ele>145.12</ele>
        <time>2026-05-03T08:06:49Z</time>
      </trkpt>
      <trkpt lat="51.189734833315015" lon="5.791990226134658">
        <ele>144.94999999999999</ele>
        <time>2026-05-03T08:07:10Z</time>
      </trkpt>
      <trkpt lat="51.189923509955406" lon="5.791875561699271">
        <ele>144.80000000000001</ele>
        <time>2026-05-03T08:07:30Z</time>
      </trkpt>
      <trkpt lat="51.189980087801814" lon="5.792179740965366">
        <ele>144.69999999999999</ele>
        <time>2026-05-03T08:07:51Z</time>
      </trkpt>
      <trkpt lat="51.189896520227194" lon="5.793259581550956">
        <ele>144.91</ele>
        <time>2026-05-03T08:08:17Z</time>
      </trkpt>
      <trkpt lat="51.190061224624515" lon="5.793673479929566">
        <ele>144.97</ele>
        <time>2026-05-03T08:09:00Z</time>
      </trkpt>
      <trkpt lat="51.190341850742698" lon="5.794488033279777">
        <ele>145.16999999999999</ele>
        <time>2026-05-03T08:09:49Z</time>
      </trkpt>
      <trkpt lat="51.190499430522323" lon="5.794898997992277">
        <ele>145.16</ele>
        <time>2026-05-03T08:10:15Z</time>
      </trkpt>
      <trkpt lat="51.190666481852531" lon="5.795361762866378">
        <ele>145.19999999999999</ele>
        <time>2026-05-03T08:10:44Z</time>
      </trkpt>
      <trkpt lat="51.190920788794756" lon="5.796040529385209">
        <ele>145.25999999999999</ele>
        <time>2026-05-03T08:11:05Z</time>
      </trkpt>
      <trkpt lat="51.191046601161361" lon="5.796783920377493">
        <ele>145.16</ele>
        <time>2026-05-03T08:12:00Z</time>
      </trkpt>
      <trkpt lat="51.191223710775375" lon="5.797196561470628">
        <ele>145.33000000000001</ele>
        <time>2026-05-03T08:12:20Z</time>
      </trkpt>
      <trkpt lat="51.191336950287223" lon="5.797447767108679">
        <ele>145.24000000000001</ele>
        <time>2026-05-03T08:12:41Z</time>
      </trkpt>
      <trkpt lat="51.191450022161007" lon="5.797315333038569">
        <ele>145.31999999999999</ele>
        <time>2026-05-03T08:12:47Z</time>
      </trkpt>
      <trkpt lat="51.19164414703846" lon="5.797156831249595">
        <ele>144.91999999999999</ele>
        <time>2026-05-03T08:13:02Z</time>
      </trkpt>
      <trkpt lat="51.191774234175682" lon="5.797428321093321">
        <ele>144.77000000000001</ele>
        <time>2026-05-03T08:13:19Z</time>
      </trkpt>
      <trkpt lat="51.191920833662152" lon="5.797841465100646">
        <ele>144.28</ele>
        <time>2026-05-03T08:13:46Z</time>
      </trkpt>
      <trkpt lat="51.192074473947287" lon="5.797991333529353">
        <ele>143.91</ele>
        <time>2026-05-03T08:14:10Z</time>
      </trkpt>
      <trkpt lat="51.192194167524576" lon="5.798415876924992">
        <ele>144.36000000000001</ele>
        <time>2026-05-03T08:14:38Z</time>
      </trkpt>
      <trkpt lat="51.192177990451455" lon="5.798680325970054">
        <ele>144.44999999999999</ele>
        <time>2026-05-03T08:14:55Z</time>
      </trkpt>
      <trkpt lat="51.192372031509876" lon="5.799544248729944">
        <ele>145.03999999999999</ele>
        <time>2026-05-03T08:15:30Z</time>
      </trkpt>
      <trkpt lat="51.192771848291159" lon="5.800274312496185">
        <ele>144.88</ele>
        <time>2026-05-03T08:16:09Z</time>
      </trkpt>
      <trkpt lat="51.193044008687139" lon="5.800860542804003">
        <ele>144.53999999999999</ele>
        <time>2026-05-03T08:16:45Z</time>
      </trkpt>
      <trkpt lat="51.193213742226362" lon="5.801199926063418">
        <ele>144.59</ele>
        <time>2026-05-03T08:17:01Z</time>
      </trkpt>
      <trkpt lat="51.193353971466422" lon="5.800926508381963">
        <ele>144.62</ele>
        <time>2026-05-03T08:17:06Z</time>
      </trkpt>
      <trkpt lat="51.193627892062068" lon="5.800208011642098">
        <ele>144.56999999999999</ele>
        <time>2026-05-03T08:18:01Z</time>
      </trkpt>
      <trkpt lat="51.193726044148207" lon="5.799873154610395">
        <ele>144.28</ele>
        <time>2026-05-03T08:18:19Z</time>
      </trkpt>
      <trkpt lat="51.193952355533838" lon="5.799291366711259">
        <ele>144.52000000000001</ele>
        <time>2026-05-03T08:18:55Z</time>
      </trkpt>
      <trkpt lat="51.194240776821971" lon="5.798687534406781">
        <ele>144.68000000000001</ele>
        <time>2026-05-03T08:19:24Z</time>
      </trkpt>
      <trkpt lat="51.194278495386243" lon="5.798784429207444">
        <ele>144.96000000000001</ele>
        <time>2026-05-03T08:19:35Z</time>
      </trkpt>
      <trkpt lat="51.195063041523099" lon="5.800623083487153">
        <ele>145.02000000000001</ele>
        <time>2026-05-03T08:21:25Z</time>
      </trkpt>
      <trkpt lat="51.195442155003548" lon="5.801616758108139">
        <ele>145.28999999999999</ele>
        <time>2026-05-03T08:22:05Z</time>
      </trkpt>
      <trkpt lat="51.195479538291693" lon="5.802026465535164">
        <ele>145.55000000000001</ele>
        <time>2026-05-03T08:22:45Z</time>
      </trkpt>
      <trkpt lat="51.19554734788835" lon="5.802862225100398">
        <ele>145.34</ele>
        <time>2026-05-03T08:23:27Z</time>
      </trkpt>
      <trkpt lat="51.1956035066396" lon="5.803697481751442">
        <ele>144.88</ele>
        <time>2026-05-03T08:24:09Z</time>
      </trkpt>
      <trkpt lat="51.195672154426575" lon="5.804578671231866">
        <ele>144.56</ele>
        <time>2026-05-03T08:24:51Z</time>
      </trkpt>
      <trkpt lat="51.19573786854744" lon="5.805191304534674">
        <ele>144.61000000000001</ele>
        <time>2026-05-03T08:25:30Z</time>
      </trkpt>
      <trkpt lat="51.195888742804527" lon="5.805953806266189">
        <ele>144.16999999999999</ele>
        <time>2026-05-03T08:26:06Z</time>
      </trkpt>
      <trkpt lat="51.196070881560445" lon="5.806742710992694">
        <ele>144.27000000000001</ele>
        <time>2026-05-03T08:26:47Z</time>
      </trkpt>
      <trkpt lat="51.196380173787475" lon="5.808077026158571">
        <ele>144.24000000000001</ele>
        <time>2026-05-03T08:27:57Z</time>
      </trkpt>
      <trkpt lat="51.19667018763721" lon="5.809367839246988">
        <ele>144.40000000000001</ele>
        <time>2026-05-03T08:29:03Z</time>
      </trkpt>
      <trkpt lat="51.196817792952061" lon="5.810029087588191">
        <ele>144.44999999999999</ele>
        <time>2026-05-03T08:29:39Z</time>
      </trkpt>
      <trkpt lat="51.196917537599802" lon="5.810461007058621">
        <ele>144.19999999999999</ele>
        <time>2026-05-03T08:30:13Z</time>
      </trkpt>
      <trkpt lat="51.196581339463592" lon="5.810723276808858">
        <ele>144.33000000000001</ele>
        <time>2026-05-03T08:30:37Z</time>
      </trkpt>
      <trkpt lat="51.19609460234642" lon="5.810947073623538">
        <ele>144.21000000000001</ele>
        <time>2026-05-03T08:31:21Z</time>
      </trkpt>
      <trkpt lat="51.195771144703031" lon="5.811014715582132">
        <ele>144.06</ele>
        <time>2026-05-03T08:31:51Z</time>
      </trkpt>
      <trkpt lat="51.195416254922748" lon="5.810938188806176">
        <ele>143.94</ele>
        <time>2026-05-03T08:32:15Z</time>
      </trkpt>
      <trkpt lat="51.1951251514256" lon="5.810854453593493">
        <ele>143.91</ele>
        <time>2026-05-03T08:32:17Z</time>
      </trkpt>
      <trkpt lat="51.194906886667013" lon="5.810713386163116">
        <ele>143.72</ele>
        <time>2026-05-03T08:32:51Z</time>
      </trkpt>
      <trkpt lat="51.19466146454215" lon="5.810603331774473">
        <ele>144.41</ele>
        <time>2026-05-03T08:33:11Z</time>
      </trkpt>
      <trkpt lat="51.194437583908439" lon="5.810516579076648">
        <ele>143.63</ele>
        <time>2026-05-03T08:33:33Z</time>
      </trkpt>
      <trkpt lat="51.194130554795265" lon="5.810546083375812">
        <ele>143.69999999999999</ele>
        <time>2026-05-03T08:33:58Z</time>
      </trkpt>
      <trkpt lat="51.193807851523161" lon="5.810611629858613">
        <ele>144.13999999999999</ele>
        <time>2026-05-03T08:34:20Z</time>
      </trkpt>
      <trkpt lat="51.193673992529511" lon="5.810610624030232">
        <ele>143.88999999999999</ele>
        <time>2026-05-03T08:34:57Z</time>
      </trkpt>
      <trkpt lat="51.192984832450747" lon="5.810878090560436">
        <ele>144</ele>
        <time>2026-05-03T08:35:16Z</time>
      </trkpt>
      <trkpt lat="51.19251050055027" lon="5.81116902641952">
        <ele>144.13999999999999</ele>
        <time>2026-05-03T08:35:45Z</time>
      </trkpt>
      <trkpt lat="51.192273376509547" lon="5.811221916228533">
        <ele>143.91</ele>
        <time>2026-05-03T08:36:19Z</time>
      </trkpt>
      <trkpt lat="51.191901471465826" lon="5.811486365273595">
        <ele>144.03</ele>
        <time>2026-05-03T08:36:50Z</time>
      </trkpt>
      <trkpt lat="51.192268850281835" lon="5.812098914757371">
        <ele>143.84</ele>
        <time>2026-05-03T08:37:25Z</time>
      </trkpt>
      <trkpt lat="51.192767405882478" lon="5.812870217487216">
        <ele>143.24000000000001</ele>
        <time>2026-05-03T08:38:18Z</time>
      </trkpt>
      <trkpt lat="51.193012408912182" lon="5.812822775915265">
        <ele>143.44999999999999</ele>
        <time>2026-05-03T08:38:40Z</time>
      </trkpt>
      <trkpt lat="51.193232014775276" lon="5.812789667397738">
        <ele>143.09</ele>
        <time>2026-05-03T08:39:04Z</time>
      </trkpt>
      <trkpt lat="51.193349696695805" lon="5.812778938561678">
        <ele>142.47999999999999</ele>
        <time>2026-05-03T08:59:37Z</time>
      </trkpt>
      <trkpt lat="51.19338171556592" lon="5.812772484496236">
        <ele>142.47999999999999</ele>
        <time>2026-05-03T08:59:59Z</time>
      </trkpt>
      <trkpt lat="51.193391187116504" lon="5.812772903591394">
        <ele>142.47999999999999</ele>
        <time>2026-05-03T09:00:43Z</time>
      </trkpt>
      <trkpt lat="51.193528734147549" lon="5.81272135488689">
        <ele>142.90000000000001</ele>
        <time>2026-05-03T09:01:05Z</time>
      </trkpt>
      <trkpt lat="51.19364800862968" lon="5.812629656866193">
        <ele>142.66999999999999</ele>
        <time>2026-05-03T09:01:19Z</time>
      </trkpt>
      <trkpt lat="51.19375211186707" lon="5.812579365447164">
        <ele>143.16999999999999</ele>
        <time>2026-05-03T09:01:31Z</time>
      </trkpt>
      <trkpt lat="51.193966940045357" lon="5.812486158683896">
        <ele>142.16999999999999</ele>
        <time>2026-05-03T09:01:51Z</time>
      </trkpt>
      <trkpt lat="51.194211356341839" lon="5.812667459249497">
        <ele>142.46000000000001</ele>
        <time>2026-05-03T09:02:11Z</time>
      </trkpt>
      <trkpt lat="51.194406487047672" lon="5.813002400100231">
        <ele>142.06999999999999</ele>
        <time>2026-05-03T09:02:33Z</time>
      </trkpt>
      <trkpt lat="51.19465802796185" lon="5.813786191865802">
        <ele>142.47999999999999</ele>
        <time>2026-05-03T09:03:18Z</time>
      </trkpt>
      <trkpt lat="51.19486371986568" lon="5.814436040818691">
        <ele>142.31</ele>
        <time>2026-05-03T09:03:57Z</time>
      </trkpt>
      <trkpt lat="51.195047032088041" lon="5.815132409334183">
        <ele>142.22</ele>
        <time>2026-05-03T09:04:19Z</time>
      </trkpt>
      <trkpt lat="51.195068573579192" lon="5.815555527806282">
        <ele>142.63999999999999</ele>
        <time>2026-05-03T09:04:56Z</time>
      </trkpt>
      <trkpt lat="51.194974193349481" lon="5.816259272396565">
        <ele>143.06999999999999</ele>
        <time>2026-05-03T09:05:31Z</time>
      </trkpt>
      <trkpt lat="51.194844776764512" lon="5.816832259297371">
        <ele>142.61000000000001</ele>
        <time>2026-05-03T09:06:01Z</time>
      </trkpt>
      <trkpt lat="51.194688538089395" lon="5.817471379414201">
        <ele>142.75</ele>
        <time>2026-05-03T09:06:38Z</time>
      </trkpt>
      <trkpt lat="51.194590302184224" lon="5.81805819645524">
        <ele>142.96000000000001</ele>
        <time>2026-05-03T09:07:13Z</time>
      </trkpt>
      <trkpt lat="51.19460622780025" lon="5.818119132891297">
        <ele>142.88999999999999</ele>
        <time>2026-05-03T09:07:27Z</time>
      </trkpt>
      <trkpt lat="51.195552879944444" lon="5.819381363689899">
        <ele>30.51171875</ele>
      </trkpt>
      <trkpt lat="51.195903243497014" lon="5.819980837404728">
        <ele>143.93000000000001</ele>
        <time>2026-05-03T09:09:24Z</time>
      </trkpt>
      <trkpt lat="51.195994857698679" lon="5.820057196542621">
        <ele>144.47999999999999</ele>
        <time>2026-05-03T09:09:45Z</time>
      </trkpt>
      <trkpt lat="51.19610583409667" lon="5.819987710565329">
        <ele>144.43000000000001</ele>
        <time>2026-05-03T09:09:57Z</time>
      </trkpt>
      <trkpt lat="51.196270873770118" lon="5.819823509082198">
        <ele>144.81999999999999</ele>
        <time>2026-05-03T09:10:15Z</time>
      </trkpt>
      <trkpt lat="51.196497604250908" lon="5.819611111655831">
        <ele>145.66999999999999</ele>
        <time>2026-05-03T09:10:34Z</time>
      </trkpt>
      <trkpt lat="51.196828857064247" lon="5.819300478324294">
        <ele>146.44999999999999</ele>
        <time>2026-05-03T09:11:06Z</time>
      </trkpt>
      <trkpt lat="51.197067908942699" lon="5.819086069241166">
        <ele>146.13</ele>
        <time>2026-05-03T09:11:29Z</time>
      </trkpt>
      <trkpt lat="51.197666209191084" lon="5.81853068433702">
        <ele>145.53999999999999</ele>
        <time>2026-05-03T09:12:03Z</time>
      </trkpt>
      <trkpt lat="51.197798224166036" lon="5.81851308234036">
        <ele>145.25999999999999</ele>
        <time>2026-05-03T09:12:23Z</time>
      </trkpt>
      <trkpt lat="51.197892604395747" lon="5.818768730387092">
        <ele>145.12</ele>
        <time>2026-05-03T09:12:40Z</time>
      </trkpt>
      <trkpt lat="51.197981704026461" lon="5.819094618782401">
        <ele>144.71000000000001</ele>
        <time>2026-05-03T09:13:00Z</time>
      </trkpt>
      <trkpt lat="51.198097625747323" lon="5.819456046447158">
        <ele>144.47999999999999</ele>
        <time>2026-05-03T09:13:42Z</time>
      </trkpt>
      <trkpt lat="51.1985685210675" lon="5.820450475439429">
        <ele>144.06999999999999</ele>
        <time>2026-05-03T09:14:22Z</time>
      </trkpt>
      <trkpt lat="51.198865910992026" lon="5.821074675768614">
        <ele>143.83000000000001</ele>
        <time>2026-05-03T09:15:01Z</time>
      </trkpt>
      <trkpt lat="51.199258603155613" lon="5.821960642933846">
        <ele>143.88999999999999</ele>
        <time>2026-05-03T09:15:54Z</time>
      </trkpt>
      <trkpt lat="51.199469575658441" lon="5.822405805811286">
        <ele>143.52000000000001</ele>
        <time>2026-05-03T09:16:37Z</time>
      </trkpt>
      <trkpt lat="51.199501929804683" lon="5.822463138028979">
        <ele>143.52000000000001</ele>
        <time>2026-05-03T09:16:41Z</time>
      </trkpt>
      <trkpt lat="51.199420373886824" lon="5.822537653148174">
        <ele>143.52000000000001</ele>
        <time>2026-05-03T09:16:48Z</time>
      </trkpt>
      <trkpt lat="51.199370585381985" lon="5.822598757222295">
        <ele>143.44999999999999</ele>
        <time>2026-05-03T09:16:53Z</time>
      </trkpt>
      <trkpt lat="51.199083756655455" lon="5.822856584563851">
        <ele>143.49000000000001</ele>
        <time>2026-05-03T09:17:16Z</time>
      </trkpt>
      <trkpt lat="51.198302144184709" lon="5.823605256155133">
        <ele>143.86000000000001</ele>
        <time>2026-05-03T09:18:20Z</time>
      </trkpt>
      <trkpt lat="51.197894616052508" lon="5.823958972468972">
        <ele>142.11000000000001</ele>
        <time>2026-05-03T09:18:57Z</time>
      </trkpt>
      <trkpt lat="51.197457918897271" lon="5.824275892227888">
        <ele>143.06</ele>
        <time>2026-05-03T09:19:35Z</time>
      </trkpt>
      <trkpt lat="51.197096575051546" lon="5.824544783681631">
        <ele>142.94</ele>
        <time>2026-05-03T09:20:08Z</time>
      </trkpt>
      <trkpt lat="51.196716455742717" lon="5.824814764782786">
        <ele>142.13999999999999</ele>
        <time>2026-05-03T09:20:42Z</time>
      </trkpt>
      <trkpt lat="51.196521576493979" lon="5.824939906597138">
        <ele>141.87</ele>
        <time>2026-05-03T09:21:03Z</time>
      </trkpt>
      <trkpt lat="51.196091920137405" lon="5.825008135288954">
        <ele>142.24000000000001</ele>
        <time>2026-05-03T09:21:34Z</time>
      </trkpt>
      <trkpt lat="51.195736527442932" lon="5.825272500514984">
        <ele>142.58000000000001</ele>
        <time>2026-05-03T09:22:07Z</time>
      </trkpt>
      <trkpt lat="51.195424469187856" lon="5.825624708086252">
        <ele>142.93000000000001</ele>
        <time>2026-05-03T09:22:39Z</time>
      </trkpt>
      <trkpt lat="51.19499858468771" lon="5.82621781155467">
        <ele>143.11000000000001</ele>
        <time>2026-05-03T09:23:23Z</time>
      </trkpt>
      <trkpt lat="51.194783253595233" lon="5.826499024406076">
        <ele>143.09</ele>
        <time>2026-05-03T09:23:45Z</time>
      </trkpt>
      <trkpt lat="51.194469267502427" lon="5.826839078217745">
        <ele>144.18000000000001</ele>
        <time>2026-05-03T09:24:25Z</time>
      </trkpt>
      <trkpt lat="51.194117562845349" lon="5.827125068753958">
        <ele>144.46000000000001</ele>
        <time>2026-05-03T09:24:45Z</time>
      </trkpt>
      <trkpt lat="51.193621773272753" lon="5.827536704018712">
        <ele>144.16</ele>
        <time>2026-05-03T09:25:28Z</time>
      </trkpt>
      <trkpt lat="51.193135874345899" lon="5.827840883284807">
        <ele>143.22</ele>
        <time>2026-05-03T09:26:11Z</time>
      </trkpt>
      <trkpt lat="51.192685849964619" lon="5.827942304313183">
        <ele>143.30000000000001</ele>
        <time>2026-05-03T09:26:34Z</time>
      </trkpt>
      <trkpt lat="51.19255106896162" lon="5.827779192477465">
        <ele>143.19</ele>
        <time>2026-05-03T09:26:55Z</time>
      </trkpt>
      <trkpt lat="51.192502453923225" lon="5.827502924948931">
        <ele>143.30000000000001</ele>
        <time>2026-05-03T09:27:12Z</time>
      </trkpt>
      <trkpt lat="51.192397344857454" lon="5.827163541689515">
        <ele>143.43000000000001</ele>
        <time>2026-05-03T09:27:33Z</time>
      </trkpt>
      <trkpt lat="51.192168267443776" lon="5.826493576169014">
        <ele>143.44999999999999</ele>
        <time>2026-05-03T09:28:12Z</time>
      </trkpt>
      <trkpt lat="51.191941956058145" lon="5.825792765244842">
        <ele>144.12</ele>
        <time>2026-05-03T09:28:47Z</time>
      </trkpt>
      <trkpt lat="51.191874565556645" lon="5.825501829385757">
        <ele>144.30000000000001</ele>
        <time>2026-05-03T09:29:06Z</time>
      </trkpt>
      <trkpt lat="51.191817820072174" lon="5.825212486088276">
        <ele>144.16999999999999</ele>
        <time>2026-05-03T09:29:26Z</time>
      </trkpt>
      <trkpt lat="51.191801642999053" lon="5.824992042034864">
        <ele>144.03999999999999</ele>
        <time>2026-05-03T09:29:35Z</time>
      </trkpt>
      <trkpt lat="51.191750429570675" lon="5.824679145589471">
        <ele>144.24000000000001</ele>
        <time>2026-05-03T09:29:58Z</time>
      </trkpt>
      <trkpt lat="51.191672310233116" lon="5.824216296896339">
        <ele>143.74000000000001</ele>
        <time>2026-05-03T09:30:17Z</time>
      </trkpt>
      <trkpt lat="51.191583378240466" lon="5.823846068233252">
        <ele>144.15000000000001</ele>
        <time>2026-05-03T09:30:25Z</time>
      </trkpt>
      <trkpt lat="51.191432420164347" lon="5.823449352756143">
        <ele>144.16999999999999</ele>
        <time>2026-05-03T09:30:40Z</time>
      </trkpt>
      <trkpt lat="51.191355139017105" lon="5.823230585083365">
        <ele>143.72</ele>
        <time>2026-05-03T09:31:00Z</time>
      </trkpt>
      <trkpt lat="51.191203175112605" lon="5.822910312563181">
        <ele>143.40000000000001</ele>
        <time>2026-05-03T09:31:20Z</time>
      </trkpt>
      <trkpt lat="51.190847782418132" lon="5.822228780016303">
        <ele>142.75</ele>
        <time>2026-05-03T09:32:01Z</time>
      </trkpt>
      <trkpt lat="51.190602192655206" lon="5.821848073974252">
        <ele>142.22999999999999</ele>
        <time>2026-05-03T09:32:20Z</time>
      </trkpt>
      <trkpt lat="51.190591380000114" lon="5.821659648790956">
        <ele>142.75999999999999</ele>
        <time>2026-05-03T09:32:40Z</time>
      </trkpt>
      <trkpt lat="51.190583249554038" lon="5.821430487558246">
        <ele>142.65000000000001</ele>
        <time>2026-05-03T09:33:02Z</time>
      </trkpt>
      <trkpt lat="51.190664134919643" lon="5.820588609203696">
        <ele>142.72</ele>
        <time>2026-05-03T09:33:31Z</time>
      </trkpt>
      <trkpt lat="51.190903941169381" lon="5.819072406738997">
        <ele>142.75</ele>
        <time>2026-05-03T09:34:16Z</time>
      </trkpt>
      <trkpt lat="51.190997902303934" lon="5.818871324881911">
        <ele>142.38999999999999</ele>
        <time>2026-05-03T09:35:01Z</time>
      </trkpt>
      <trkpt lat="51.1911291629076" lon="5.818253913894296">
        <ele>142.03</ele>
        <time>2026-05-03T09:35:37Z</time>
      </trkpt>
      <trkpt lat="51.191213987767696" lon="5.817664917558432">
        <ele>142.22999999999999</ele>
        <time>2026-05-03T09:36:10Z</time>
      </trkpt>
      <trkpt lat="51.191270565614104" lon="5.817232914268971">
        <ele>142.36000000000001</ele>
        <time>2026-05-03T09:36:29Z</time>
      </trkpt>
      <trkpt lat="51.191505007445812" lon="5.816166317090392">
        <ele>142.25</ele>
        <time>2026-05-03T09:36:56Z</time>
      </trkpt>
      <trkpt lat="51.191426888108253" lon="5.816007647663355">
        <ele>141.97</ele>
        <time>2026-05-03T09:37:43Z</time>
      </trkpt>
      <trkpt lat="51.191302919760346" lon="5.815782845020294">
        <ele>142.31999999999999</ele>
        <time>2026-05-03T09:38:05Z</time>
      </trkpt>
      <trkpt lat="51.191211305558681" lon="5.815223017707467">
        <ele>142.81999999999999</ele>
        <time>2026-05-03T09:38:25Z</time>
      </trkpt>
      <trkpt lat="51.191069316118956" lon="5.814509047195315">
        <ele>142.90000000000001</ele>
        <time>2026-05-03T09:39:00Z</time>
      </trkpt>
      <trkpt lat="51.190979378297925" lon="5.814127419143915">
        <ele>143.09999999999999</ele>
        <time>2026-05-03T09:39:35Z</time>
      </trkpt>
      <trkpt lat="51.190660446882248" lon="5.813246564939618">
        <ele>142.81</ele>
        <time>2026-05-03T09:40:11Z</time>
      </trkpt>
      <trkpt lat="51.190478475764394" lon="5.812812466174364">
        <ele>142.88999999999999</ele>
        <time>2026-05-03T09:40:41Z</time>
      </trkpt>
      <trkpt lat="51.190347550436854" lon="5.81248339265585">
        <ele>143.11000000000001</ele>
        <time>2026-05-03T09:41:12Z</time>
      </trkpt>
      <trkpt lat="51.190289128571749" lon="5.812329081818461">
        <ele>143.11000000000001</ele>
        <time>2026-05-03T09:41:13Z</time>
      </trkpt>
      <trkpt lat="51.189239043742418" lon="5.812986055389047">
        <ele>143.11000000000001</ele>
        <time>2026-05-03T09:41:14Z</time>
      </trkpt>
      <trkpt lat="51.188983898609877" lon="5.812630578875542">
        <ele>29.79296875</ele>
      </trkpt>
      <trkpt lat="51.188591290265322" lon="5.812270324677229">
        <ele>143.46000000000001</ele>
        <time>2026-05-03T09:41:28Z</time>
      </trkpt>
    </trkseg>
  </trk>

</gpx>